sensor_id;sensor_type;location;lat;lon;timestamp;temperature;humidity
28837;DHT22;50669;50.982;11.022;2022-07-11T00:00:07;15.80;99.90
28837;DHT22;50669;50.982;11.022;2022-07-11T00:02:34;15.80;99.90
28837;DHT22;50669;50.982;11.022;2022-07-11T00:04:59;15.80;99.90
28837;DHT22;50669;50.982;11.022;2022-07-11T00:07:27;15.80;99.90
28837;DHT22;50669;50.982;11.022;2022-07-11T00:09:55;15.80;99.90
28837;DHT22;50669;50.982;11.022;2022-07-11T00:12:21;15.90;99.90
28837;DHT22;50669;50.982;11.022;2022-07-11T00:14:48;15.80;99.90
28837;DHT22;50669;50.982;11.022;2022-07-11T00:17:13;15.80;99.90
28837;DHT22;50669;50.982;11.022;2022-07-11T00:19:44;15.90;99.90
28837;DHT22;50669;50.982;11.022;2022-07-11T00:22:13;15.80;99.90
28837;DHT22;50669;50.982;11.022;2022-07-11T00:24:41;15.90;99.90
28837;DHT22;50669;50.982;11.022;2022-07-11T00:27:07;15.80;99.90
28837;DHT22;50669;50.982;11.022;2022-07-11T00:29:33;15.80;99.90
28837;DHT22;50669;50.982;11.022;2022-07-11T00:31:59;15.80;99.90
28837;DHT22;50669;50.982;11.022;2022-07-11T00:34:25;15.80;99.90
28837;DHT22;50669;50.982;11.022;2022-07-11T00:36:56;15.80;99.90
28837;DHT22;50669;50.982;11.022;2022-07-11T00:39:24;15.80;99.90
28837;DHT22;50669;50.982;11.022;2022-07-11T00:41:52;15.80;99.90
28837;DHT22;50669;50.982;11.022;2022-07-11T00:44:19;15.80;99.90
28837;DHT22;50669;50.982;11.022;2022-07-11T00:46:47;15.80;99.90
28837;DHT22;50669;50.982;11.022;2022-07-11T00:49:13;15.80;99.90
28837;DHT22;50669;50.982;11.022;2022-07-11T00:51:41;15.80;99.90
28837;DHT22;50669;50.982;11.022;2022-07-11T00:54:11;15.80;99.90
28837;DHT22;50669;50.982;11.022;2022-07-11T00:56:37;15.80;99.90
28837;DHT22;50669;50.982;11.022;2022-07-11T00:59:05;15.80;99.90
28837;DHT22;50669;50.982;11.022;2022-07-11T01:01:33;15.70;99.90
28837;DHT22;50669;50.982;11.022;2022-07-11T01:04:03;15.80;99.90
28837;DHT22;50669;50.982;11.022;2022-07-11T01:06:31;15.70;99.90
28837;DHT22;50669;50.982;11.022;2022-07-11T01:08:56;15.80;99.90
28837;DHT22;50669;50.982;11.022;2022-07-11T01:11:27;15.70;99.90
28837;DHT22;50669;50.982;11.022;2022-07-11T01:13:55;15.70;99.90
28837;DHT22;50669;50.982;11.022;2022-07-11T01:16:22;15.70;99.90
28837;DHT22;50669;50.982;11.022;2022-07-11T01:18:52;15.70;99.90
28837;DHT22;50669;50.982;11.022;2022-07-11T01:21:32;15.70;99.90
28837;DHT22;50669;50.982;11.022;2022-07-11T01:24:02;15.70;99.90
28837;DHT22;50669;50.982;11.022;2022-07-11T01:26:33;15.70;99.90
28837;DHT22;50669;50.982;11.022;2022-07-11T01:29:10;15.70;99.90
28837;DHT22;50669;50.982;11.022;2022-07-11T01:31:45;15.70;99.90
28837;DHT22;50669;50.982;11.022;2022-07-11T01:34:11;15.70;99.90
28837;DHT22;50669;50.982;11.022;2022-07-11T01:36:36;15.60;99.90
28837;DHT22;50669;50.982;11.022;2022-07-11T01:39:05;15.70;99.90
28837;DHT22;50669;50.982;11.022;2022-07-11T01:41:31;15.70;99.90
28837;DHT22;50669;50.982;11.022;2022-07-11T01:43:57;15.70;99.90
28837;DHT22;50669;50.982;11.022;2022-07-11T01:46:22;15.70;99.90
28837;DHT22;50669;50.982;11.022;2022-07-11T01:48:51;15.70;99.90
28837;DHT22;50669;50.982;11.022;2022-07-11T01:51:16;15.70;99.90
28837;DHT22;50669;50.982;11.022;2022-07-11T01:53:44;15.70;99.90
28837;DHT22;50669;50.982;11.022;2022-07-11T01:56:13;15.60;99.90
28837;DHT22;50669;50.982;11.022;2022-07-11T01:58:38;15.60;99.90
28837;DHT22;50669;50.982;11.022;2022-07-11T02:01:04;15.70;99.90
28837;DHT22;50669;50.982;11.022;2022-07-11T02:03:30;15.70;99.90
28837;DHT22;50669;50.982;11.022;2022-07-11T02:05:57;15.70;99.90
28837;DHT22;50669;50.982;11.022;2022-07-11T02:08:23;15.70;99.90
28837;DHT22;50669;50.982;11.022;2022-07-11T02:10:50;15.60;99.90
28837;DHT22;50669;50.982;11.022;2022-07-11T02:13:19;15.60;99.90
28837;DHT22;50669;50.982;11.022;2022-07-11T02:15:46;15.70;99.90
28837;DHT22;50669;50.982;11.022;2022-07-11T02:18:14;15.70;99.90
28837;DHT22;50669;50.982;11.022;2022-07-11T02:20:41;15.70;99.90
28837;DHT22;50669;50.982;11.022;2022-07-11T02:23:08;15.70;99.90
28837;DHT22;50669;50.982;11.022;2022-07-11T02:25:34;15.70;99.90
28837;DHT22;50669;50.982;11.022;2022-07-11T02:28:04;15.70;99.90
28837;DHT22;50669;50.982;11.022;2022-07-11T02:30:32;15.70;99.90
28837;DHT22;50669;50.982;11.022;2022-07-11T02:33:03;15.70;99.90
28837;DHT22;50669;50.982;11.022;2022-07-11T02:35:29;15.70;99.90
28837;DHT22;50669;50.982;11.022;2022-07-11T02:38:03;15.70;99.90
28837;DHT22;50669;50.982;11.022;2022-07-11T02:40:31;15.60;99.90
28837;DHT22;50669;50.982;11.022;2022-07-11T02:42:57;15.70;99.90
28837;DHT22;50669;50.982;11.022;2022-07-11T02:45:23;15.60;99.90
28837;DHT22;50669;50.982;11.022;2022-07-11T02:47:48;15.60;99.90
28837;DHT22;50669;50.982;11.022;2022-07-11T02:50:14;15.60;99.90
28837;DHT22;50669;50.982;11.022;2022-07-11T02:52:42;15.60;99.90
28837;DHT22;50669;50.982;11.022;2022-07-11T02:55:12;15.60;99.90
28837;DHT22;50669;50.982;11.022;2022-07-11T02:57:38;15.60;99.90
28837;DHT22;50669;50.982;11.022;2022-07-11T03:00:06;15.60;99.90
28837;DHT22;50669;50.982;11.022;2022-07-11T03:02:34;15.50;99.90
28837;DHT22;50669;50.982;11.022;2022-07-11T03:05:02;15.60;99.90
28837;DHT22;50669;50.982;11.022;2022-07-11T03:07:28;15.60;99.90
28837;DHT22;50669;50.982;11.022;2022-07-11T03:09:55;15.50;99.90
28837;DHT22;50669;50.982;11.022;2022-07-11T03:12:23;15.50;99.90
28837;DHT22;50669;50.982;11.022;2022-07-11T03:14:48;15.50;99.90
28837;DHT22;50669;50.982;11.022;2022-07-11T03:17:18;15.50;99.90
28837;DHT22;50669;50.982;11.022;2022-07-11T03:19:44;15.60;99.90
28837;DHT22;50669;50.982;11.022;2022-07-11T03:22:10;15.60;99.90
28837;DHT22;50669;50.982;11.022;2022-07-11T03:24:36;15.50;99.90
28837;DHT22;50669;50.982;11.022;2022-07-11T03:27:02;15.50;99.90
28837;DHT22;50669;50.982;11.022;2022-07-11T03:29:28;15.50;99.90
28837;DHT22;50669;50.982;11.022;2022-07-11T03:31:58;15.50;99.90
28837;DHT22;50669;50.982;11.022;2022-07-11T03:34:24;15.50;99.90
28837;DHT22;50669;50.982;11.022;2022-07-11T03:36:49;15.50;99.90
28837;DHT22;50669;50.982;11.022;2022-07-11T03:39:15;15.50;99.90
28837;DHT22;50669;50.982;11.022;2022-07-11T03:41:41;15.50;99.90
28837;DHT22;50669;50.982;11.022;2022-07-11T03:44:07;15.60;99.90
28837;DHT22;50669;50.982;11.022;2022-07-11T03:46:35;15.60;99.90
28837;DHT22;50669;50.982;11.022;2022-07-11T03:49:01;15.60;99.90
28837;DHT22;50669;50.982;11.022;2022-07-11T03:51:27;15.60;99.90
28837;DHT22;50669;50.982;11.022;2022-07-11T03:53:52;15.50;99.90
28837;DHT22;50669;50.982;11.022;2022-07-11T03:56:18;15.60;99.90
28837;DHT22;50669;50.982;11.022;2022-07-11T03:58:48;15.60;99.90
28837;DHT22;50669;50.982;11.022;2022-07-11T04:01:15;15.50;99.90
28837;DHT22;50669;50.982;11.022;2022-07-11T04:03:40;15.50;99.90
28837;DHT22;50669;50.982;11.022;2022-07-11T04:06:06;15.60;99.90
28837;DHT22;50669;50.982;11.022;2022-07-11T04:08:34;15.60;99.90
28837;DHT22;50669;50.982;11.022;2022-07-11T04:11:02;15.60;99.90
28837;DHT22;50669;50.982;11.022;2022-07-11T04:13:28;15.60;99.90
28837;DHT22;50669;50.982;11.022;2022-07-11T04:15:54;15.60;99.90
28837;DHT22;50669;50.982;11.022;2022-07-11T04:18:22;15.60;99.90
28837;DHT22;50669;50.982;11.022;2022-07-11T04:20:48;15.60;99.90
28837;DHT22;50669;50.982;11.022;2022-07-11T04:23:15;15.70;99.90
28837;DHT22;50669;50.982;11.022;2022-07-11T04:25:41;15.70;99.90
28837;DHT22;50669;50.982;11.022;2022-07-11T04:28:07;15.70;99.90
28837;DHT22;50669;50.982;11.022;2022-07-11T04:30:32;15.70;99.90
28837;DHT22;50669;50.982;11.022;2022-07-11T04:33:01;15.70;99.90
28837;DHT22;50669;50.982;11.022;2022-07-11T04:35:26;15.70;99.90
28837;DHT22;50669;50.982;11.022;2022-07-11T04:37:53;15.80;99.90
28837;DHT22;50669;50.982;11.022;2022-07-11T04:40:21;15.80;99.90
28837;DHT22;50669;50.982;11.022;2022-07-11T04:42:51;15.80;99.90
28837;DHT22;50669;50.982;11.022;2022-07-11T04:45:18;15.90;99.90
28837;DHT22;50669;50.982;11.022;2022-07-11T04:47:46;16.00;99.90
28837;DHT22;50669;50.982;11.022;2022-07-11T04:50:14;16.00;99.90
28837;DHT22;50669;50.982;11.022;2022-07-11T04:52:41;16.10;99.90
28837;DHT22;50669;50.982;11.022;2022-07-11T04:55:07;16.20;99.90
28837;DHT22;50669;50.982;11.022;2022-07-11T04:57:35;16.30;99.90
28837;DHT22;50669;50.982;11.022;2022-07-11T05:00:04;16.50;99.90
28837;DHT22;50669;50.982;11.022;2022-07-11T05:02:30;16.50;99.90
28837;DHT22;50669;50.982;11.022;2022-07-11T05:04:55;16.50;99.90
28837;DHT22;50669;50.982;11.022;2022-07-11T05:07:21;16.50;99.90
28837;DHT22;50669;50.982;11.022;2022-07-11T05:09:47;16.50;99.90
28837;DHT22;50669;50.982;11.022;2022-07-11T05:12:12;16.40;99.90
28837;DHT22;50669;50.982;11.022;2022-07-11T05:14:38;16.50;99.90
28837;DHT22;50669;50.982;11.022;2022-07-11T05:17:04;16.60;99.90
28837;DHT22;50669;50.982;11.022;2022-07-11T05:19:29;16.60;99.90
28837;DHT22;50669;50.982;11.022;2022-07-11T05:21:57;16.60;99.90
28837;DHT22;50669;50.982;11.022;2022-07-11T05:24:25;16.70;99.90
28837;DHT22;50669;50.982;11.022;2022-07-11T05:26:53;16.70;99.90
28837;DHT22;50669;50.982;11.022;2022-07-11T05:29:19;16.70;99.90
28837;DHT22;50669;50.982;11.022;2022-07-11T05:31:47;16.70;99.90
28837;DHT22;50669;50.982;11.022;2022-07-11T05:34:18;16.60;99.90
28837;DHT22;50669;50.982;11.022;2022-07-11T05:36:45;16.60;99.90
28837;DHT22;50669;50.982;11.022;2022-07-11T05:39:14;16.60;99.90
28837;DHT22;50669;50.982;11.022;2022-07-11T05:41:40;16.80;99.90
28837;DHT22;50669;50.982;11.022;2022-07-11T05:44:06;16.80;99.90
28837;DHT22;50669;50.982;11.022;2022-07-11T05:46:36;16.90;99.90
28837;DHT22;50669;50.982;11.022;2022-07-11T05:49:05;16.90;99.90
28837;DHT22;50669;50.982;11.022;2022-07-11T05:51:33;16.90;99.90
28837;DHT22;50669;50.982;11.022;2022-07-11T05:54:01;17.00;99.90
28837;DHT22;50669;50.982;11.022;2022-07-11T05:56:27;17.00;99.90
28837;DHT22;50669;50.982;11.022;2022-07-11T05:58:52;17.10;99.90
28837;DHT22;50669;50.982;11.022;2022-07-11T06:01:18;17.00;99.90
28837;DHT22;50669;50.982;11.022;2022-07-11T06:03:44;17.00;99.90
28837;DHT22;50669;50.982;11.022;2022-07-11T06:06:11;16.90;99.90
28837;DHT22;50669;50.982;11.022;2022-07-11T06:08:37;16.90;99.90
28837;DHT22;50669;50.982;11.022;2022-07-11T06:11:13;17.00;99.90
28837;DHT22;50669;50.982;11.022;2022-07-11T06:13:40;17.10;99.90
28837;DHT22;50669;50.982;11.022;2022-07-11T06:16:09;17.20;99.90
28837;DHT22;50669;50.982;11.022;2022-07-11T06:18:38;17.30;99.90
28837;DHT22;50669;50.982;11.022;2022-07-11T06:21:06;17.40;99.90
28837;DHT22;50669;50.982;11.022;2022-07-11T06:23:32;17.40;99.90
28837;DHT22;50669;50.982;11.022;2022-07-11T06:26:00;17.50;99.90
28837;DHT22;50669;50.982;11.022;2022-07-11T06:28:26;17.60;99.90
28837;DHT22;50669;50.982;11.022;2022-07-11T06:30:56;17.80;99.90
28837;DHT22;50669;50.982;11.022;2022-07-11T06:33:24;17.90;99.90
28837;DHT22;50669;50.982;11.022;2022-07-11T06:35:52;17.90;99.90
28837;DHT22;50669;50.982;11.022;2022-07-11T06:38:20;18.10;99.90
28837;DHT22;50669;50.982;11.022;2022-07-11T06:40:46;18.10;99.90
28837;DHT22;50669;50.982;11.022;2022-07-11T06:43:14;18.40;99.90
28837;DHT22;50669;50.982;11.022;2022-07-11T06:45:43;18.50;99.90
28837;DHT22;50669;50.982;11.022;2022-07-11T06:48:08;18.70;99.90
28837;DHT22;50669;50.982;11.022;2022-07-11T06:50:36;18.70;99.90
28837;DHT22;50669;50.982;11.022;2022-07-11T06:53:04;18.30;99.90
28837;DHT22;50669;50.982;11.022;2022-07-11T06:55:31;18.20;99.90
28837;DHT22;50669;50.982;11.022;2022-07-11T06:58:00;18.20;99.90
28837;DHT22;50669;50.982;11.022;2022-07-11T07:00:26;18.30;99.90
28837;DHT22;50669;50.982;11.022;2022-07-11T07:02:56;18.40;99.90
28837;DHT22;50669;50.982;11.022;2022-07-11T07:05:26;18.30;99.90
28837;DHT22;50669;50.982;11.022;2022-07-11T07:07:52;18.30;99.90
28837;DHT22;50669;50.982;11.022;2022-07-11T07:10:20;18.40;99.90
28837;DHT22;50669;50.982;11.022;2022-07-11T07:12:46;18.50;99.90
28837;DHT22;50669;50.982;11.022;2022-07-11T07:15:12;18.60;99.90
28837;DHT22;50669;50.982;11.022;2022-07-11T07:17:40;18.80;99.90
28837;DHT22;50669;50.982;11.022;2022-07-11T07:20:06;18.50;99.90
28837;DHT22;50669;50.982;11.022;2022-07-11T07:22:38;18.50;99.90
28837;DHT22;50669;50.982;11.022;2022-07-11T07:25:05;18.50;99.90
28837;DHT22;50669;50.982;11.022;2022-07-11T07:27:33;18.50;99.90
28837;DHT22;50669;50.982;11.022;2022-07-11T07:30:01;18.40;99.90
28837;DHT22;50669;50.982;11.022;2022-07-11T07:32:30;18.50;99.90
28837;DHT22;50669;50.982;11.022;2022-07-11T07:34:56;18.60;99.90
28837;DHT22;50669;50.982;11.022;2022-07-11T07:37:21;18.80;99.90
28837;DHT22;50669;50.982;11.022;2022-07-11T07:39:47;19.10;99.90
28837;DHT22;50669;50.982;11.022;2022-07-11T07:42:13;19.10;99.40
28837;DHT22;50669;50.982;11.022;2022-07-11T07:44:42;19.10;99.20
28837;DHT22;50669;50.982;11.022;2022-07-11T07:47:10;18.90;99.20
28837;DHT22;50669;50.982;11.022;2022-07-11T07:49:38;18.70;99.30
28837;DHT22;50669;50.982;11.022;2022-07-11T07:52:04;18.80;99.80
28837;DHT22;50669;50.982;11.022;2022-07-11T07:54:32;18.70;99.30
28837;DHT22;50669;50.982;11.022;2022-07-11T07:56:58;18.90;99.10
28837;DHT22;50669;50.982;11.022;2022-07-11T07:59:23;18.80;98.10
28837;DHT22;50669;50.982;11.022;2022-07-11T08:01:51;18.90;97.70
28837;DHT22;50669;50.982;11.022;2022-07-11T08:04:19;18.90;98.00
28837;DHT22;50669;50.982;11.022;2022-07-11T08:06:45;19.00;97.90
28837;DHT22;50669;50.982;11.022;2022-07-11T08:09:11;19.30;97.90
28837;DHT22;50669;50.982;11.022;2022-07-11T08:11:37;19.50;97.60
28837;DHT22;50669;50.982;11.022;2022-07-11T08:14:06;19.70;96.60
28837;DHT22;50669;50.982;11.022;2022-07-11T08:16:34;20.00;96.30
28837;DHT22;50669;50.982;11.022;2022-07-11T08:19:02;20.30;95.80
28837;DHT22;50669;50.982;11.022;2022-07-11T08:21:32;20.60;95.40
28837;DHT22;50669;50.982;11.022;2022-07-11T08:23:58;20.70;95.20
28837;DHT22;50669;50.982;11.022;2022-07-11T08:26:24;20.40;96.30
28837;DHT22;50669;50.982;11.022;2022-07-11T08:28:52;20.10;97.10
28837;DHT22;50669;50.982;11.022;2022-07-11T08:31:18;19.90;97.20
28837;DHT22;50669;50.982;11.022;2022-07-11T08:33:44;19.60;97.60
28837;DHT22;50669;50.982;11.022;2022-07-11T08:36:09;19.60;98.00
28837;DHT22;50669;50.982;11.022;2022-07-11T08:38:38;19.70;98.00
28837;DHT22;50669;50.982;11.022;2022-07-11T08:41:05;19.80;97.80
28837;DHT22;50669;50.982;11.022;2022-07-11T08:43:33;20.00;97.50
28837;DHT22;50669;50.982;11.022;2022-07-11T08:45:59;20.10;96.30
28837;DHT22;50669;50.982;11.022;2022-07-11T08:48:30;19.90;95.90
28837;DHT22;50669;50.982;11.022;2022-07-11T08:50:59;19.80;95.60
28837;DHT22;50669;50.982;11.022;2022-07-11T08:53:26;19.60;96.10
28837;DHT22;50669;50.982;11.022;2022-07-11T08:55:55;19.70;96.50
28837;DHT22;50669;50.982;11.022;2022-07-11T08:58:23;19.70;96.40
28837;DHT22;50669;50.982;11.022;2022-07-11T09:00:49;19.60;97.10
28837;DHT22;50669;50.982;11.022;2022-07-11T09:03:15;19.70;96.80
28837;DHT22;50669;50.982;11.022;2022-07-11T09:05:43;19.70;96.30
28837;DHT22;50669;50.982;11.022;2022-07-11T09:08:11;19.70;96.90
28837;DHT22;50669;50.982;11.022;2022-07-11T09:10:40;19.60;97.00
28837;DHT22;50669;50.982;11.022;2022-07-11T09:13:10;19.40;96.90
28837;DHT22;50669;50.982;11.022;2022-07-11T09:18:39;19.30;97.40
28837;DHT22;50669;50.982;11.022;2022-07-11T09:21:09;19.40;97.30
28837;DHT22;50669;50.982;11.022;2022-07-11T09:23:55;19.40;97.20
28837;DHT22;50669;50.982;11.022;2022-07-11T09:26:41;19.60;97.10
28837;DHT22;50669;50.982;11.022;2022-07-11T09:29:10;19.70;97.50
28837;DHT22;50669;50.982;11.022;2022-07-11T09:31:40;19.80;97.30
28837;DHT22;50669;50.982;11.022;2022-07-11T09:34:17;20.00;97.00
28837;DHT22;50669;50.982;11.022;2022-07-11T09:39:16;20.40;96.80
28837;DHT22;50669;50.982;11.022;2022-07-11T09:41:43;20.60;96.60
28837;DHT22;50669;50.982;11.022;2022-07-11T09:46:39;20.60;96.20
28837;DHT22;50669;50.982;11.022;2022-07-11T09:49:05;20.60;96.30
28837;DHT22;50669;50.982;11.022;2022-07-11T09:51:33;20.70;96.60
28837;DHT22;50669;50.982;11.022;2022-07-11T09:54:05;20.70;96.80
28837;DHT22;50669;50.982;11.022;2022-07-11T09:56:40;20.90;96.80
28837;DHT22;50669;50.982;11.022;2022-07-11T09:59:08;21.10;96.20
28837;DHT22;50669;50.982;11.022;2022-07-11T10:01:37;21.40;95.00
28837;DHT22;50669;50.982;11.022;2022-07-11T10:04:07;21.40;95.00
28837;DHT22;50669;50.982;11.022;2022-07-11T10:06:36;21.50;95.50
28837;DHT22;50669;50.982;11.022;2022-07-11T10:09:03;21.70;95.00
28837;DHT22;50669;50.982;11.022;2022-07-11T10:11:34;21.80;94.80
28837;DHT22;50669;50.982;11.022;2022-07-11T10:14:01;21.80;94.80
28837;DHT22;50669;50.982;11.022;2022-07-11T10:17:00;21.80;94.70
28837;DHT22;50669;50.982;11.022;2022-07-11T10:19:33;21.90;94.60
28837;DHT22;50669;50.982;11.022;2022-07-11T10:22:26;22.00;94.40
28837;DHT22;50669;50.982;11.022;2022-07-11T10:30:52;22.00;93.80
28837;DHT22;50669;50.982;11.022;2022-07-11T10:33:23;21.50;94.70
28837;DHT22;50669;50.982;11.022;2022-07-11T10:35:50;21.60;94.70
28837;DHT22;50669;50.982;11.022;2022-07-11T10:38:19;21.80;94.20
28837;DHT22;50669;50.982;11.022;2022-07-11T10:43:35;22.20;93.50
28837;DHT22;50669;50.982;11.022;2022-07-11T10:46:10;22.20;93.40
28837;DHT22;50669;50.982;11.022;2022-07-11T10:51:54;22.30;93.00
28837;DHT22;50669;50.982;11.022;2022-07-11T10:57:28;22.00;92.60
28837;DHT22;50669;50.982;11.022;2022-07-11T11:02:20;21.80;93.80
28837;DHT22;50669;50.982;11.022;2022-07-11T11:04:56;22.00;93.80
28837;DHT22;50669;50.982;11.022;2022-07-11T11:07:38;21.70;94.50
28837;DHT22;50669;50.982;11.022;2022-07-11T11:10:06;21.80;94.50
28837;DHT22;50669;50.982;11.022;2022-07-11T11:15:48;21.80;94.10
28837;DHT22;50669;50.982;11.022;2022-07-11T11:21:21;21.70;94.60
28837;DHT22;50669;50.982;11.022;2022-07-11T11:26:41;21.80;94.50
28837;DHT22;50669;50.982;11.022;2022-07-11T11:29:09;21.60;94.60
28837;DHT22;50669;50.982;11.022;2022-07-11T11:31:37;21.70;94.90
28837;DHT22;50669;50.982;11.022;2022-07-11T11:34:04;21.80;94.40
28837;DHT22;50669;50.982;11.022;2022-07-11T11:36:32;21.80;94.70
28837;DHT22;50669;50.982;11.022;2022-07-11T11:38:58;21.80;95.00
28837;DHT22;50669;50.982;11.022;2022-07-11T11:41:29;21.90;94.70
28837;DHT22;50669;50.982;11.022;2022-07-11T11:44:01;22.20;94.40
28837;DHT22;50669;50.982;11.022;2022-07-11T11:46:31;22.20;94.30
28837;DHT22;50669;50.982;11.022;2022-07-11T11:49:01;22.30;94.30
28837;DHT22;50669;50.982;11.022;2022-07-11T11:51:31;22.40;94.30
28837;DHT22;50669;50.982;11.022;2022-07-11T11:53:59;22.30;94.20
28837;DHT22;50669;50.982;11.022;2022-07-11T11:56:31;22.20;93.40
28837;DHT22;50669;50.982;11.022;2022-07-11T11:59:06;21.90;94.20
28837;DHT22;50669;50.982;11.022;2022-07-11T12:01:39;22.00;93.60
28837;DHT22;50669;50.982;11.022;2022-07-11T12:04:07;21.60;93.90
28837;DHT22;50669;50.982;11.022;2022-07-11T12:06:41;21.40;94.70
28837;DHT22;50669;50.982;11.022;2022-07-11T12:09:13;21.40;94.90
28837;DHT22;50669;50.982;11.022;2022-07-11T12:11:44;21.40;95.20
28837;DHT22;50669;50.982;11.022;2022-07-11T12:14:14;21.60;95.30
28837;DHT22;50669;50.982;11.022;2022-07-11T12:16:42;21.60;94.90
28837;DHT22;50669;50.982;11.022;2022-07-11T12:19:18;21.60;95.20
28837;DHT22;50669;50.982;11.022;2022-07-11T12:21:49;21.80;94.70
28837;DHT22;50669;50.982;11.022;2022-07-11T12:24:23;22.10;94.70
28837;DHT22;50669;50.982;11.022;2022-07-11T12:26:49;22.50;94.50
28837;DHT22;50669;50.982;11.022;2022-07-11T12:29:19;22.80;93.90
28837;DHT22;50669;50.982;11.022;2022-07-11T12:31:52;23.00;94.00
28837;DHT22;50669;50.982;11.022;2022-07-11T12:34:41;23.30;92.90
28837;DHT22;50669;50.982;11.022;2022-07-11T12:37:08;23.50;92.80
28837;DHT22;50669;50.982;11.022;2022-07-11T12:39:46;23.00;93.30
28837;DHT22;50669;50.982;11.022;2022-07-11T12:42:32;22.80;93.80
28837;DHT22;50669;50.982;11.022;2022-07-11T12:45:11;22.80;93.20
28837;DHT22;50669;50.982;11.022;2022-07-11T12:47:39;22.90;93.50
28837;DHT22;50669;50.982;11.022;2022-07-11T12:50:21;22.50;94.20
28837;DHT22;50669;50.982;11.022;2022-07-11T12:52:52;22.40;94.90
28837;DHT22;50669;50.982;11.022;2022-07-11T12:55:27;21.80;96.30
28837;DHT22;50669;50.982;11.022;2022-07-11T12:58:10;21.80;96.50
28837;DHT22;50669;50.982;11.022;2022-07-11T13:00:37;21.90;96.30
28837;DHT22;50669;50.982;11.022;2022-07-11T13:03:05;22.10;96.20
28837;DHT22;50669;50.982;11.022;2022-07-11T13:05:52;22.50;95.50
28837;DHT22;50669;50.982;11.022;2022-07-11T13:08:31;22.60;95.10
28837;DHT22;50669;50.982;11.022;2022-07-11T13:11:20;23.00;94.50
28837;DHT22;50669;50.982;11.022;2022-07-11T13:13:50;22.90;94.40
28837;DHT22;50669;50.982;11.022;2022-07-11T13:16:17;22.90;94.60
28837;DHT22;50669;50.982;11.022;2022-07-11T13:18:44;23.10;94.40
28837;DHT22;50669;50.982;11.022;2022-07-11T13:21:19;23.00;94.30
28837;DHT22;50669;50.982;11.022;2022-07-11T13:23:45;22.70;94.40
28837;DHT22;50669;50.982;11.022;2022-07-11T13:26:11;22.50;94.80
28837;DHT22;50669;50.982;11.022;2022-07-11T13:28:37;22.50;94.60
28837;DHT22;50669;50.982;11.022;2022-07-11T13:31:05;22.80;94.10
28837;DHT22;50669;50.982;11.022;2022-07-11T13:33:32;23.30;93.90
28837;DHT22;50669;50.982;11.022;2022-07-11T13:35:58;24.30;92.50
28837;DHT22;50669;50.982;11.022;2022-07-11T13:38:24;25.90;90.20
28837;DHT22;50669;50.982;11.022;2022-07-11T13:40:50;27.40;84.30
28837;DHT22;50669;50.982;11.022;2022-07-11T13:43:15;26.90;80.80
28837;DHT22;50669;50.982;11.022;2022-07-11T13:45:42;26.50;80.50
28837;DHT22;50669;50.982;11.022;2022-07-11T13:48:13;25.70;82.40
28837;DHT22;50669;50.982;11.022;2022-07-11T13:50:41;24.70;84.70
28837;DHT22;50669;50.982;11.022;2022-07-11T13:53:07;24.20;85.60
28837;DHT22;50669;50.982;11.022;2022-07-11T13:55:33;24.20;86.30
28837;DHT22;50669;50.982;11.022;2022-07-11T13:57:59;24.30;85.00
28837;DHT22;50669;50.982;11.022;2022-07-11T14:00:29;24.80;84.10
28837;DHT22;50669;50.982;11.022;2022-07-11T14:02:55;25.00;83.90
28837;DHT22;50669;50.982;11.022;2022-07-11T14:05:21;26.10;82.20
28837;DHT22;50669;50.982;11.022;2022-07-11T14:07:48;27.00;78.60
28837;DHT22;50669;50.982;11.022;2022-07-11T14:10:14;27.40;76.50
28837;DHT22;50669;50.982;11.022;2022-07-11T14:12:40;28.00;75.50
28837;DHT22;50669;50.982;11.022;2022-07-11T14:15:07;29.40;72.40
28837;DHT22;50669;50.982;11.022;2022-07-11T14:17:36;30.60;66.90
28837;DHT22;50669;50.982;11.022;2022-07-11T14:20:02;30.60;66.20
28837;DHT22;50669;50.982;11.022;2022-07-11T14:22:28;30.20;64.70
28837;DHT22;50669;50.982;11.022;2022-07-11T14:24:58;28.70;67.00
28837;DHT22;50669;50.982;11.022;2022-07-11T14:27:24;29.10;67.80
28837;DHT22;50669;50.982;11.022;2022-07-11T14:29:51;30.60;64.50
28837;DHT22;50669;50.982;11.022;2022-07-11T14:32:21;31.50;60.70
28837;DHT22;50669;50.982;11.022;2022-07-11T14:34:47;32.40;58.90
28837;DHT22;50669;50.982;11.022;2022-07-11T14:37:15;33.10;57.70
28837;DHT22;50669;50.982;11.022;2022-07-11T14:39:41;31.90;57.30
28837;DHT22;50669;50.982;11.022;2022-07-11T14:42:06;30.70;59.30
28837;DHT22;50669;50.982;11.022;2022-07-11T14:44:33;29.60;61.50
28837;DHT22;50669;50.982;11.022;2022-07-11T14:47:01;29.20;60.90
28837;DHT22;50669;50.982;11.022;2022-07-11T14:49:27;30.20;60.90
28837;DHT22;50669;50.982;11.022;2022-07-11T14:51:55;31.90;57.30
28837;DHT22;50669;50.982;11.022;2022-07-11T14:54:21;31.70;56.40
28837;DHT22;50669;50.982;11.022;2022-07-11T14:56:49;32.10;57.10
28837;DHT22;50669;50.982;11.022;2022-07-11T14:59:15;33.00;54.60
28837;DHT22;50669;50.982;11.022;2022-07-11T15:01:40;31.60;54.80
28837;DHT22;50669;50.982;11.022;2022-07-11T15:04:08;30.20;57.80
28837;DHT22;50669;50.982;11.022;2022-07-11T15:06:35;28.80;60.70
28837;DHT22;50669;50.982;11.022;2022-07-11T15:09:20;28.00;62.60
28837;DHT22;50669;50.982;11.022;2022-07-11T15:12:04;27.80;64.60
28837;DHT22;50669;50.982;11.022;2022-07-11T15:14:53;28.80;60.80
28837;DHT22;50669;50.982;11.022;2022-07-11T15:17:19;29.40;59.80
28837;DHT22;50669;50.982;11.022;2022-07-11T15:19:47;28.90;60.40
28837;DHT22;50669;50.982;11.022;2022-07-11T15:22:15;27.80;61.50
28837;DHT22;50669;50.982;11.022;2022-07-11T15:24:43;26.90;63.90
28837;DHT22;50669;50.982;11.022;2022-07-11T15:27:08;26.30;66.00
28837;DHT22;50669;50.982;11.022;2022-07-11T15:29:35;25.70;68.50
28837;DHT22;50669;50.982;11.022;2022-07-11T15:32:01;25.60;68.80
28837;DHT22;50669;50.982;11.022;2022-07-11T15:34:26;25.40;69.50
28837;DHT22;50669;50.982;11.022;2022-07-11T15:36:54;25.00;69.40
28837;DHT22;50669;50.982;11.022;2022-07-11T15:39:20;25.00;70.50
28837;DHT22;50669;50.982;11.022;2022-07-11T15:41:46;25.00;71.30
28837;DHT22;50669;50.982;11.022;2022-07-11T15:44:13;24.90;72.50
28837;DHT22;50669;50.982;11.022;2022-07-11T15:46:39;24.80;72.60
28837;DHT22;50669;50.982;11.022;2022-07-11T15:49:07;24.50;72.90
28837;DHT22;50669;50.982;11.022;2022-07-11T15:51:38;24.20;74.50
28837;DHT22;50669;50.982;11.022;2022-07-11T15:54:06;24.10;75.10
28837;DHT22;50669;50.982;11.022;2022-07-11T15:56:32;24.00;75.50